createdAt,value
2017-04-01T00:00:18.757Z,0
2017-04-01T00:00:59.465Z,0
2017-04-01T00:01:39.720Z,0
2017-04-01T00:02:20.205Z,0
2017-04-01T00:03:00.688Z,0
2017-04-01T00:03:41.174Z,0
2017-04-01T00:04:21.647Z,0
2017-04-01T00:05:02.129Z,0
2017-04-01T00:05:42.633Z,0
2017-04-01T00:06:23.115Z,0
2017-04-01T00:07:03.602Z,0
2017-04-01T00:07:44.082Z,0
2017-04-01T00:08:24.578Z,0
2017-04-01T00:09:05.044Z,0
2017-04-01T00:09:45.540Z,0
2017-04-01T00:10:26.033Z,0
2017-04-01T00:11:06.500Z,0
2017-04-01T00:11:46.977Z,0
2017-04-01T00:12:27.480Z,0
2017-04-01T00:13:07.949Z,0
2017-04-01T00:13:48.394Z,0
2017-04-01T00:14:28.859Z,0
2017-04-01T00:15:09.317Z,0
2017-04-01T00:15:49.840Z,0
2017-04-01T00:16:30.298Z,0
2017-04-01T00:17:10.738Z,0
2017-04-01T00:19:38.656Z,0
2017-04-01T00:20:19.200Z,0
2017-04-01T00:20:59.696Z,0
2017-04-01T00:21:40.173Z,0
2017-04-01T00:22:20.640Z,0
2017-04-01T00:23:01.120Z,0
2017-04-01T00:25:13.882Z,0
2017-04-01T00:25:54.408Z,0
2017-04-01T00:26:34.898Z,0
2017-04-01T00:27:15.401Z,0
2017-04-01T00:27:55.885Z,0
2017-04-01T00:28:36.369Z,0
2017-04-01T00:29:16.817Z,0
2017-04-01T00:29:57.244Z,0
2017-04-01T00:30:37.697Z,0
2017-04-01T00:31:18.160Z,0
2017-04-01T00:31:58.580Z,0
2017-04-01T00:32:39.061Z,0
2017-04-01T00:33:19.550Z,0
2017-04-01T00:33:59.968Z,0
2017-04-01T00:34:40.436Z,0
2017-04-01T00:35:20.907Z,0
2017-04-01T00:36:01.382Z,0
2017-04-01T00:36:41.824Z,0
2017-04-01T00:37:22.263Z,0
2017-04-01T00:38:02.695Z,0
2017-04-01T00:38:43.130Z,0
2017-04-01T00:39:23.555Z,0
2017-04-01T00:40:04.000Z,0
2017-04-01T00:42:16.707Z,0
2017-04-01T00:42:57.197Z,0
2017-04-01T00:43:37.700Z,0
2017-04-01T00:44:18.191Z,0
2017-04-01T00:44:58.690Z,0
2017-04-01T00:45:39.207Z,0
2017-04-01T00:46:19.679Z,0
2017-04-01T00:47:00.133Z,0
2017-04-01T00:47:40.628Z,0
2017-04-01T00:48:21.120Z,0
2017-04-01T00:49:01.602Z,0
2017-04-01T00:49:42.075Z,0
2017-04-01T00:50:22.578Z,0
2017-04-01T00:51:03.041Z,0
2017-04-01T00:51:43.567Z,0
2017-04-01T00:52:23.985Z,0
2017-04-01T00:53:04.486Z,0
2017-04-01T00:53:44.927Z,0
2017-04-01T00:54:25.408Z,0
2017-04-01T00:55:05.923Z,0
2017-04-01T00:55:46.342Z,0
2017-04-01T00:56:26.783Z,0
2017-04-01T00:59:04.916Z,0
2017-04-01T00:59:45.401Z,0
2017-04-01T01:00:25.912Z,0
2017-04-01T01:01:06.437Z,0
2017-04-01T01:01:46.873Z,0
2017-04-01T01:02:27.360Z,0
2017-04-01T01:03:07.830Z,0
2017-04-01T01:03:48.304Z,0
2017-04-01T01:04:28.851Z,0
2017-04-01T01:05:09.314Z,0
2017-04-01T01:05:49.784Z,0
2017-04-01T01:06:30.230Z,0
2017-04-01T01:07:10.680Z,0
2017-04-01T01:07:51.149Z,0
2017-04-01T01:08:31.599Z,0
2017-04-01T01:11:04.685Z,0
2017-04-01T01:11:45.149Z,0
2017-04-01T01:14:18.158Z,0
2017-04-01T01:14:58.607Z,0
2017-04-01T01:15:39.095Z,0
2017-04-01T01:16:19.586Z,0
2017-04-01T01:17:00.085Z,0
2017-04-01T01:17:40.564Z,0
2017-04-01T01:18:21.084Z,0
2017-04-01T01:19:01.560Z,0
2017-04-01T01:19:42.052Z,0
2017-04-01T01:20:22.491Z,0
2017-04-01T01:22:50.407Z,0
2017-04-01T01:23:30.861Z,0
2017-04-01T01:24:11.345Z,0
2017-04-01T01:24:51.784Z,0
2017-04-01T01:25:32.259Z,0
2017-04-01T01:26:12.700Z,0
2017-04-01T01:26:53.146Z,0
2017-04-01T01:27:33.592Z,0
2017-04-01T01:29:51.408Z,0
2017-04-01T01:30:31.902Z,0
2017-04-01T01:31:12.437Z,0
2017-04-01T01:31:52.933Z,0
2017-04-01T01:32:33.441Z,0
2017-04-01T01:33:13.965Z,0
2017-04-01T01:33:54.402Z,0
2017-04-01T01:34:34.885Z,0
2017-04-01T01:35:15.392Z,0
2017-04-01T01:35:55.875Z,0
2017-04-01T01:36:36.366Z,0
2017-04-01T01:37:16.834Z,0
2017-04-01T01:37:57.270Z,0
2017-04-01T01:38:37.724Z,0
2017-04-01T01:39:18.196Z,0
2017-04-01T01:39:58.671Z,0
2017-04-01T01:40:39.092Z,0
2017-04-01T01:41:19.519Z,0
2017-04-01T01:41:59.989Z,0
2017-04-01T01:42:40.422Z,0
2017-04-01T01:43:20.862Z,0
2017-04-01T01:44:01.293Z,0
2017-04-01T01:46:39.404Z,0
2017-04-01T01:47:19.899Z,0
2017-04-01T01:48:00.388Z,0
2017-04-01T01:48:40.879Z,0
2017-04-01T01:49:21.309Z,0
2017-04-01T01:50:01.808Z,0
2017-04-01T01:50:42.275Z,0
2017-04-01T01:53:10.213Z,0
2017-04-01T01:53:50.653Z,0
2017-04-01T01:54:31.118Z,0
2017-04-01T01:55:11.602Z,0
2017-04-01T01:57:29.368Z,0
2017-04-01T01:58:09.818Z,0
2017-04-01T01:58:50.283Z,0
2017-04-01T01:59:30.717Z,0
2017-04-01T02:00:11.167Z,0
2017-04-01T02:00:51.615Z,0
2017-04-01T02:01:32.058Z,0
2017-04-01T02:02:12.507Z,0
2017-04-01T02:04:25.229Z,0
2017-04-01T02:05:05.701Z,0
2017-04-01T02:05:46.219Z,0
2017-04-01T02:06:26.683Z,0
2017-04-01T02:07:07.159Z,0
2017-04-01T02:07:47.628Z,0
2017-04-01T02:08:28.078Z,0
2017-04-01T02:09:08.536Z,0
2017-04-01T02:09:48.955Z,0
2017-04-01T02:10:29.422Z,0
2017-04-01T02:11:09.858Z,0
2017-04-01T02:11:50.319Z,0
2017-04-01T02:12:30.782Z,0
2017-04-01T02:13:11.254Z,0
2017-04-01T02:13:51.687Z,0
2017-04-01T02:14:32.141Z,0
2017-04-01T02:16:44.840Z,0
2017-04-01T02:17:25.351Z,0
2017-04-01T02:18:05.825Z,0
2017-04-01T02:18:46.325Z,0
2017-04-01T02:19:26.806Z,0
2017-04-01T02:20:07.291Z,0
2017-04-01T02:20:47.792Z,0
2017-04-01T02:21:28.297Z,0
2017-04-01T02:22:08.754Z,0
2017-04-01T02:22:49.291Z,0
2017-04-01T02:23:29.772Z,0
2017-04-01T02:24:10.253Z,0
2017-04-01T02:24:50.750Z,0
2017-04-01T02:25:31.210Z,0
2017-04-01T02:26:11.702Z,0
2017-04-01T02:26:52.188Z,0
2017-04-01T02:27:32.664Z,0
2017-04-01T02:28:13.137Z,0
2017-04-01T02:28:53.634Z,0
2017-04-01T02:29:34.147Z,0
2017-04-01T02:30:14.579Z,0
2017-04-01T02:30:55.030Z,0
2017-04-01T02:31:35.485Z,0
2017-04-01T02:32:15.929Z,0
2017-04-01T02:32:56.438Z,0
2017-04-01T02:33:36.889Z,0
2017-04-01T02:34:17.327Z,0
2017-04-01T02:34:57.777Z,0
2017-04-01T02:35:38.270Z,0
2017-04-01T02:36:18.679Z,0
2017-04-01T02:36:59.094Z,0
2017-04-01T02:37:39.546Z,0
2017-04-01T02:40:17.656Z,0
2017-04-01T02:40:58.163Z,0
2017-04-01T02:41:38.629Z,0
2017-04-01T02:42:19.130Z,0
2017-04-01T02:42:59.614Z,0
2017-04-01T02:43:40.125Z,0
2017-04-01T02:44:20.572Z,0
2017-04-01T02:45:01.040Z,0
2017-04-01T02:45:41.560Z,0
2017-04-01T02:46:22.076Z,0
2017-04-01T02:47:02.548Z,0
2017-04-01T02:47:43.031Z,0
2017-04-01T02:48:23.492Z,0
2017-04-01T02:49:03.980Z,0
2017-04-01T02:49:44.484Z,0
2017-04-01T02:50:24.934Z,0
2017-04-01T02:51:05.386Z,0
2017-04-01T02:51:45.842Z,0
2017-04-01T02:52:26.259Z,0
2017-04-01T02:53:06.718Z,0
2017-04-01T02:53:47.183Z,0
2017-04-01T02:54:27.623Z,0
2017-04-01T02:55:08.077Z,0
2017-04-01T02:55:48.547Z,0
2017-04-01T02:58:01.321Z,0
2017-04-01T02:58:41.787Z,0
2017-04-01T02:59:22.277Z,0
2017-04-01T03:00:02.756Z,0
2017-04-01T03:00:43.242Z,0
2017-04-01T03:01:23.743Z,0
2017-04-01T03:02:04.219Z,0
2017-04-01T03:02:44.656Z,0
2017-04-01T03:03:25.139Z,0
2017-04-01T03:06:03.257Z,0
2017-04-01T03:06:43.724Z,0
2017-04-01T03:07:24.227Z,0
2017-04-01T03:08:04.716Z,0
2017-04-01T03:08:45.194Z,0
2017-04-01T03:09:25.697Z,0
2017-04-01T03:10:06.284Z,0
2017-04-01T03:10:46.792Z,0
2017-04-01T03:11:27.261Z,0
2017-04-01T03:12:07.780Z,0
2017-04-01T03:12:48.323Z,0
2017-04-01T03:13:28.779Z,0
2017-04-01T03:14:09.245Z,0
2017-04-01T03:14:49.799Z,0
2017-04-01T03:15:30.318Z,0
2017-04-01T03:16:10.823Z,0
2017-04-01T03:16:51.322Z,0
2017-04-01T03:17:31.814Z,0
2017-04-01T03:18:12.304Z,0
2017-04-01T03:18:52.856Z,0
2017-04-01T03:19:33.359Z,0
2017-04-01T03:20:13.837Z,0
2017-04-01T03:20:54.327Z,0
2017-04-01T03:21:34.793Z,0
2017-04-01T03:22:15.272Z,0
2017-04-01T03:22:55.796Z,0
2017-04-01T03:25:28.834Z,0
2017-04-01T03:26:09.318Z,0
2017-04-01T03:26:49.819Z,0
2017-04-01T03:27:30.302Z,0
2017-04-01T03:28:10.782Z,0
2017-04-01T03:28:51.251Z,0
2017-04-01T03:29:31.750Z,0
2017-04-01T03:30:12.199Z,0
2017-04-01T03:30:52.699Z,0
2017-04-01T03:31:33.130Z,0
2017-04-01T03:32:13.623Z,0
2017-04-01T03:34:31.493Z,0
2017-04-01T03:35:11.981Z,0
2017-04-01T03:35:52.495Z,0
2017-04-01T03:36:32.921Z,0
2017-04-01T03:37:13.399Z,0
2017-04-01T03:37:53.862Z,0
2017-04-01T03:40:21.825Z,0
2017-04-01T03:41:02.298Z,0
2017-04-01T03:41:42.765Z,0
2017-04-01T03:42:23.237Z,0
2017-04-01T03:43:03.743Z,0
2017-04-01T03:43:44.237Z,0
2017-04-01T03:46:02.017Z,0
2017-04-01T03:46:42.541Z,0
2017-04-01T03:47:23.004Z,0
2017-04-01T03:48:03.462Z,0
2017-04-01T03:48:43.958Z,0
2017-04-01T03:49:24.360Z,0
2017-04-01T03:50:04.805Z,0
2017-04-01T03:50:45.291Z,0
2017-04-01T03:53:23.374Z,0
2017-04-01T03:54:03.846Z,0
2017-04-01T03:54:44.312Z,0
2017-04-01T03:55:24.798Z,0
2017-04-01T03:56:05.522Z,0
2017-04-01T03:56:45.995Z,0
2017-04-01T03:57:26.506Z,0
2017-04-01T03:58:06.949Z,0
2017-04-01T03:58:47.451Z,0
2017-04-01T03:59:27.930Z,0
2017-04-01T04:00:08.385Z,0
2017-04-01T04:00:48.838Z,0
2017-04-01T04:03:16.812Z,0
2017-04-01T04:03:57.245Z,0
2017-04-01T04:04:37.723Z,0
2017-04-01T04:05:18.210Z,0
2017-04-01T04:05:58.707Z,0
2017-04-01T04:06:39.290Z,0
2017-04-01T04:07:19.752Z,0
2017-04-01T04:08:00.451Z,0
2017-04-01T04:08:40.673Z,0
2017-04-01T04:11:18.754Z,0
2017-04-01T04:11:59.240Z,0
2017-04-01T04:12:39.748Z,0
2017-04-01T04:13:20.245Z,0
2017-04-01T04:14:00.948Z,0
2017-04-01T04:14:41.423Z,0
2017-04-01T04:15:21.904Z,0
2017-04-01T04:16:02.389Z,0
2017-04-01T04:16:42.857Z,0
2017-04-01T04:17:23.290Z,0
2017-04-01T04:18:03.796Z,0
2017-04-01T04:18:44.223Z,0
2017-04-01T04:19:24.706Z,0
2017-04-01T04:20:05.148Z,0
2017-04-01T04:22:38.140Z,0
2017-04-01T04:23:18.627Z,0
2017-04-01T04:23:59.117Z,0
2017-04-01T04:24:39.545Z,0
2017-04-01T04:25:20.033Z,0
2017-04-01T04:26:00.642Z,0
2017-04-01T04:26:41.109Z,0
2017-04-01T04:27:21.588Z,0
2017-04-01T04:28:02.069Z,0
2017-04-01T04:28:42.549Z,0
2017-04-01T04:29:23.004Z,0
2017-04-01T04:30:03.497Z,0
2017-04-01T04:30:43.970Z,0
2017-04-01T04:31:24.440Z,0
2017-04-01T04:34:02.598Z,0
2017-04-01T04:34:43.093Z,0
2017-04-01T04:35:23.573Z,0
2017-04-01T04:36:04.055Z,0
2017-04-01T04:36:44.521Z,0
2017-04-01T04:37:24.993Z,0
2017-04-01T04:38:05.464Z,0
2017-04-01T04:38:45.922Z,0
2017-04-01T04:39:26.379Z,0
2017-04-01T04:40:06.812Z,0
2017-04-01T04:40:47.263Z,0
2017-04-01T04:41:27.731Z,0
2017-04-01T04:43:55.654Z,0
2017-04-01T04:44:36.124Z,0
2017-04-01T04:45:16.586Z,0
2017-04-01T04:45:57.008Z,0
2017-04-01T04:48:30.029Z,0
2017-04-01T04:49:10.508Z,0
2017-04-01T04:49:50.981Z,0
2017-04-01T04:50:31.554Z,0
2017-04-01T04:51:11.952Z,0
2017-04-01T04:51:52.438Z,0
2017-04-01T04:52:32.860Z,0
2017-04-01T04:53:13.305Z,0
2017-04-01T04:53:53.776Z,0
2017-04-01T04:54:34.252Z,0
2017-04-01T04:55:14.701Z,0
2017-04-01T04:55:55.161Z,0
2017-04-01T04:56:35.669Z,0
2017-04-01T04:58:48.416Z,5
2017-04-01T04:59:28.905Z,5
2017-04-01T05:00:09.363Z,5
2017-04-01T05:00:49.863Z,5
2017-04-01T05:01:30.344Z,5
2017-04-01T05:02:10.811Z,5
2017-04-01T05:02:51.267Z,5
2017-04-01T05:05:19.213Z,5
2017-04-01T05:05:59.712Z,5
2017-04-01T05:06:40.189Z,10
2017-04-01T05:07:20.606Z,10
2017-04-01T05:08:01.042Z,10
2017-04-01T05:08:41.506Z,10
2017-04-01T05:11:09.452Z,10
2017-04-01T05:11:49.962Z,10
2017-04-01T05:12:30.563Z,10
2017-04-01T05:13:11.041Z,10
2017-04-01T05:13:51.554Z,15
2017-04-01T05:14:32.048Z,15
2017-04-01T05:15:12.517Z,15
2017-04-01T05:17:50.548Z,20
2017-04-01T05:18:31.093Z,20
2017-04-01T05:19:11.526Z,20
2017-04-01T05:19:51.992Z,20
2017-04-01T05:20:32.451Z,20
2017-04-01T05:21:12.889Z,25
2017-04-01T05:21:53.337Z,25
2017-04-01T05:22:33.826Z,25
2017-04-01T05:23:14.326Z,25
2017-04-01T05:23:54.773Z,25
2017-04-01T05:26:27.788Z,25
2017-04-01T05:27:08.249Z,25
2017-04-01T05:27:48.786Z,25
2017-04-01T05:28:29.228Z,30
2017-04-01T05:29:09.694Z,30
2017-04-01T05:29:50.212Z,30
2017-04-01T05:30:30.704Z,30
2017-04-01T05:31:11.183Z,30
2017-04-01T05:31:51.685Z,30
2017-04-01T05:32:32.171Z,30
2017-04-01T05:33:12.721Z,30
2017-04-01T05:33:53.164Z,30
2017-04-01T05:34:33.673Z,30
2017-04-01T05:35:14.151Z,30
2017-04-01T05:35:54.633Z,35
2017-04-01T05:36:35.114Z,35
2017-04-01T05:37:15.588Z,35
2017-04-01T05:37:56.064Z,35
2017-04-01T05:38:36.576Z,35
2017-04-01T05:39:17.058Z,35
2017-04-01T05:39:57.567Z,35
2017-04-01T05:40:38.051Z,40
2017-04-01T05:41:18.545Z,40
2017-04-01T05:41:59.013Z,40
2017-04-01T05:42:39.494Z,40
2017-04-01T05:43:19.930Z,40
2017-04-01T05:44:00.390Z,40
2017-04-01T05:46:28.352Z,45
2017-04-01T05:47:08.811Z,45
2017-04-01T05:47:49.298Z,45
2017-04-01T05:48:29.799Z,50
2017-04-01T05:49:10.245Z,50
2017-04-01T05:49:50.728Z,50
2017-04-01T05:50:31.216Z,50
2017-04-01T05:51:11.732Z,55
2017-04-01T05:51:52.172Z,55
2017-04-01T05:52:32.605Z,55
2017-04-01T05:53:13.060Z,60
2017-04-01T05:53:53.537Z,60
2017-04-01T05:54:33.998Z,60
2017-04-01T05:55:14.438Z,60
2017-04-01T05:55:54.869Z,65
2017-04-01T05:56:35.331Z,65
2017-04-01T05:58:48.055Z,70
2017-04-01T05:59:28.549Z,70
2017-04-01T06:00:09.030Z,70
2017-04-01T06:00:49.538Z,70
2017-04-01T06:01:30.027Z,70
2017-04-01T06:02:10.508Z,75
2017-04-01T06:02:50.993Z,75
2017-04-01T06:03:31.455Z,75
2017-04-01T06:04:11.941Z,75
2017-04-01T06:04:52.425Z,75
2017-04-01T06:05:32.873Z,75
2017-04-01T06:06:13.326Z,80
2017-04-01T06:06:53.820Z,80
2017-04-01T06:07:34.284Z,80
2017-04-01T06:08:14.731Z,80
2017-04-01T06:08:55.167Z,80
2017-04-01T06:11:07.966Z,85
2017-04-01T06:11:48.374Z,85
2017-04-01T06:12:28.853Z,90
2017-04-01T06:13:09.344Z,90
2017-04-01T06:13:49.826Z,95
2017-04-01T06:14:30.314Z,95
2017-04-01T06:15:10.786Z,95
2017-04-01T06:15:51.285Z,100
2017-04-01T06:16:31.774Z,100
2017-04-01T06:17:12.209Z,100
2017-04-01T06:17:52.650Z,105
2017-04-01T06:20:10.415Z,105
2017-04-01T06:20:50.899Z,110
2017-04-01T06:21:32.042Z,110
2017-04-01T06:22:12.504Z,110
2017-04-01T06:22:52.974Z,110
2017-04-01T06:23:33.464Z,110
2017-04-01T06:24:13.963Z,110
2017-04-01T06:24:54.511Z,110
2017-04-01T06:25:34.921Z,110
2017-04-01T06:26:15.409Z,115
2017-04-01T06:26:55.892Z,115
2017-04-01T06:27:36.328Z,115
2017-04-01T06:28:16.787Z,115
2017-04-01T06:30:34.626Z,125
2017-04-01T06:31:15.098Z,125
2017-04-01T06:31:55.579Z,125
2017-04-01T06:32:36.066Z,130
2017-04-01T06:33:16.541Z,130
2017-04-01T06:33:57.040Z,135
2017-04-01T06:34:37.501Z,140
2017-04-01T06:35:18.005Z,145
2017-04-01T06:35:58.479Z,145
2017-04-01T06:36:38.952Z,150
2017-04-01T06:37:19.429Z,150
2017-04-01T06:37:59.966Z,155
2017-04-01T06:38:40.482Z,160
2017-04-01T06:39:20.965Z,160
2017-04-01T06:40:01.448Z,165
2017-04-01T06:40:41.907Z,170
2017-04-01T06:41:22.406Z,175
2017-04-01T06:42:02.946Z,180
2017-04-01T06:42:43.363Z,180
2017-04-01T06:45:11.306Z,195
2017-04-01T06:45:51.770Z,200
2017-04-01T06:48:29.860Z,210
2017-04-01T06:49:10.311Z,215
2017-04-01T06:49:50.788Z,215
2017-04-01T06:50:31.333Z,220
2017-04-01T06:51:11.835Z,220
2017-04-01T06:51:52.330Z,220
2017-04-01T06:52:32.829Z,220
2017-04-01T06:53:13.340Z,220
2017-04-01T06:53:53.778Z,225
2017-04-01T06:54:34.254Z,225
2017-04-01T06:55:14.698Z,225
2017-04-01T06:55:55.139Z,230
2017-04-01T06:56:35.579Z,230
2017-04-01T06:57:16.035Z,230
2017-04-01T06:57:56.454Z,235
2017-04-01T06:58:36.936Z,235
2017-04-01T06:59:17.370Z,240
2017-04-01T07:01:50.397Z,250
2017-04-01T07:02:30.885Z,250
2017-04-01T07:03:11.372Z,250
2017-04-01T07:03:51.860Z,250
2017-04-01T07:04:32.328Z,255
2017-04-01T07:05:12.809Z,260
2017-04-01T07:05:53.296Z,260
2017-04-01T07:06:33.802Z,265
2017-04-01T07:07:14.282Z,270
2017-04-01T07:07:54.794Z,270
2017-04-01T07:08:35.327Z,275
2017-04-01T07:09:15.862Z,275
2017-04-01T07:09:56.279Z,290
2017-04-01T07:10:36.775Z,295
2017-04-01T07:11:17.246Z,325
2017-04-01T07:11:57.732Z,340
2017-04-01T07:12:38.221Z,335
2017-04-01T07:13:18.710Z,385
2017-04-01T07:13:59.146Z,385
2017-04-01T07:14:39.611Z,345
2017-04-01T07:15:20.046Z,340
2017-04-01T07:16:00.557Z,335
2017-04-01T07:16:40.986Z,335
2017-04-01T07:17:21.426Z,325
2017-04-01T07:18:01.883Z,335
2017-04-01T07:18:42.374Z,370
2017-04-01T07:19:22.859Z,385
2017-04-01T07:20:03.308Z,370
2017-04-01T07:20:43.735Z,405
2017-04-01T07:21:24.177Z,405
2017-04-01T07:22:04.647Z,415
2017-04-01T07:22:45.091Z,380
2017-04-01T07:25:13.030Z,410
2017-04-01T07:25:53.529Z,435
2017-04-01T07:26:34.013Z,445
2017-04-01T07:27:14.500Z,425
2017-04-01T07:27:54.977Z,415
2017-04-01T07:28:35.459Z,425
2017-04-01T07:29:15.953Z,450
2017-04-01T07:29:56.460Z,440
2017-04-01T07:30:36.913Z,455
2017-04-01T07:33:04.877Z,430
2017-04-01T07:33:45.394Z,410
2017-04-01T07:34:25.902Z,405
2017-04-01T07:35:06.341Z,400
2017-04-01T07:35:46.811Z,405
2017-04-01T07:36:27.315Z,400
2017-04-01T07:37:07.808Z,390
2017-04-01T07:37:48.232Z,385
2017-04-01T07:38:28.696Z,395
2017-04-01T07:39:09.150Z,390
2017-04-01T07:41:26.973Z,355
2017-04-01T07:42:07.451Z,340
2017-04-01T07:42:47.894Z,335
2017-04-01T07:43:28.352Z,320
2017-04-01T07:44:08.847Z,310
2017-04-01T07:46:46.928Z,310
2017-04-01T07:47:27.404Z,310
2017-04-01T07:48:07.906Z,315
2017-04-01T07:48:48.391Z,315
2017-04-01T07:49:28.868Z,315
2017-04-01T07:50:09.363Z,320
2017-04-01T07:50:49.841Z,320
2017-04-01T07:51:30.353Z,325
2017-04-01T07:52:10.839Z,330
2017-04-01T07:52:51.371Z,335
2017-04-01T07:53:31.786Z,340
2017-04-01T07:54:12.262Z,345
2017-04-01T07:54:52.750Z,355
2017-04-01T07:55:33.254Z,360
2017-04-01T07:56:13.794Z,365
2017-04-01T07:56:54.274Z,375
2017-04-01T07:57:34.766Z,385
2017-04-01T07:58:15.246Z,390
2017-04-01T07:58:55.730Z,400
2017-04-01T07:59:36.210Z,410
2017-04-01T08:00:16.718Z,415
2017-04-01T08:00:57.200Z,430
2017-04-01T08:01:37.683Z,435
2017-04-01T08:02:18.145Z,455
2017-04-01T08:02:58.602Z,475
2017-04-01T08:03:39.093Z,510
2017-04-01T08:04:19.575Z,555
2017-04-01T08:05:00.079Z,500
2017-04-01T08:05:40.552Z,465
2017-04-01T08:06:20.994Z,460
2017-04-01T08:07:01.456Z,455
2017-04-01T08:07:41.894Z,450
2017-04-01T08:09:59.719Z,510
2017-04-01T08:10:40.185Z,500
2017-04-01T08:13:13.160Z,470
2017-04-01T08:13:53.677Z,465
2017-04-01T08:14:34.159Z,480
2017-04-01T08:15:14.649Z,450
2017-04-01T08:15:55.120Z,455
2017-04-01T08:16:35.585Z,460
2017-04-01T08:17:16.041Z,450
2017-04-01T08:17:56.510Z,460
2017-04-01T08:18:36.975Z,455
2017-04-01T08:19:17.436Z,455
2017-04-01T08:19:57.899Z,450
2017-04-01T08:20:38.322Z,455
2017-04-01T08:23:16.443Z,415
2017-04-01T08:23:56.989Z,405
2017-04-01T08:24:37.505Z,405
2017-04-01T08:25:17.911Z,400
2017-04-01T08:25:58.402Z,400
2017-04-01T08:26:38.877Z,405
2017-04-01T08:27:19.338Z,410
2017-04-01T08:27:59.866Z,410
2017-04-01T08:28:40.326Z,415
2017-04-01T08:29:20.824Z,420
2017-04-01T08:31:38.659Z,435
2017-04-01T08:32:19.154Z,440
2017-04-01T08:32:59.607Z,460
2017-04-01T08:33:40.087Z,465
2017-04-01T08:34:20.533Z,465
2017-04-01T08:35:00.959Z,470
2017-04-01T08:35:41.399Z,470
2017-04-01T08:36:21.850Z,470
2017-04-01T08:37:02.319Z,465
2017-04-01T08:39:40.404Z,480
2017-04-01T08:42:08.408Z,470
2017-04-01T08:42:48.894Z,485
2017-04-01T08:43:29.456Z,490
2017-04-01T08:44:09.855Z,470
2017-04-01T08:44:50.335Z,475
2017-04-01T08:45:30.822Z,485
2017-04-01T08:46:11.285Z,480
2017-04-01T08:46:51.719Z,480
2017-04-01T08:47:32.170Z,475
2017-04-01T08:48:12.622Z,480
2017-04-01T08:50:40.654Z,455
2017-04-01T08:51:21.140Z,450
2017-04-01T08:52:01.623Z,450
2017-04-01T08:54:14.453Z,445
2017-04-01T08:54:54.990Z,445
2017-04-01T08:55:35.453Z,445
2017-04-01T08:56:15.921Z,445
2017-04-01T08:56:56.431Z,450
2017-04-01T08:57:36.882Z,455
2017-04-01T08:58:17.320Z,460
2017-04-01T08:58:57.791Z,465
2017-04-01T08:59:38.232Z,475
2017-04-01T09:00:18.687Z,480
2017-04-01T09:00:59.115Z,485
2017-04-01T09:01:39.574Z,490
2017-04-01T09:03:57.472Z,515
2017-04-01T09:04:37.960Z,520
2017-04-01T09:05:18.431Z,515
2017-04-01T09:07:46.357Z,525
2017-04-01T09:08:26.863Z,530
2017-04-01T09:09:07.318Z,525
2017-04-01T09:09:47.899Z,530
2017-04-01T09:10:28.302Z,540
2017-04-01T09:11:08.782Z,560
2017-04-01T09:13:47.003Z,590
2017-04-01T09:14:27.448Z,600
2017-04-01T09:15:07.914Z,595
2017-04-01T09:15:48.336Z,590
2017-04-01T09:16:28.772Z,590
2017-04-01T09:18:56.755Z,580
2017-04-01T09:19:37.218Z,565
2017-04-01T09:20:17.698Z,560
2017-04-01T09:20:58.202Z,560
2017-04-01T09:21:38.722Z,560
2017-04-01T09:22:19.131Z,565
2017-04-01T09:24:31.912Z,570
2017-04-01T09:25:12.406Z,570
2017-04-01T09:25:52.842Z,575
2017-04-01T09:26:33.323Z,565
2017-04-01T09:27:13.822Z,560
2017-04-01T09:27:54.257Z,560
2017-04-01T09:28:34.697Z,550
2017-04-01T09:29:15.149Z,550
2017-04-01T09:29:55.613Z,540
2017-04-01T09:30:36.064Z,540
2017-04-01T09:32:53.993Z,580
2017-04-01T09:33:34.458Z,585
2017-04-01T09:34:14.909Z,580
2017-04-01T09:34:55.372Z,595
2017-04-01T09:35:35.822Z,610
2017-04-01T09:36:16.291Z,610
2017-04-01T09:36:56.755Z,620
2017-04-01T09:37:37.216Z,610
2017-04-01T09:38:17.657Z,590
2017-04-01T09:38:58.091Z,590
2017-04-01T09:39:38.554Z,575
2017-04-01T09:40:19.049Z,560
2017-04-01T09:40:59.520Z,555
2017-04-01T09:41:39.961Z,545
2017-04-01T09:42:20.424Z,535
2017-04-01T09:43:00.890Z,535
2017-04-01T09:43:41.352Z,535
2017-04-01T09:44:21.793Z,530
2017-04-01T09:46:39.656Z,550
2017-04-01T09:47:20.133Z,560
2017-04-01T09:48:00.684Z,565
2017-04-01T09:48:41.139Z,570
2017-04-01T09:49:21.615Z,575
2017-04-01T09:50:02.075Z,575
2017-04-01T09:50:42.523Z,580
2017-04-01T09:52:55.300Z,580
2017-04-01T09:53:35.751Z,580
2017-04-01T09:54:16.232Z,585
2017-04-01T09:56:44.163Z,635
2017-04-01T09:57:24.622Z,620
2017-04-01T09:58:05.077Z,610
2017-04-01T09:58:45.544Z,600
2017-04-01T09:59:25.970Z,595
2017-04-01T10:00:06.455Z,595
2017-04-01T10:00:46.889Z,595
2017-04-01T10:01:27.364Z,600
2017-04-01T10:02:07.853Z,600
2017-04-01T10:02:48.257Z,610
2017-04-01T10:03:28.722Z,615
2017-04-01T10:04:09.202Z,620
2017-04-01T10:04:49.635Z,625
2017-04-01T10:05:30.061Z,635
2017-04-01T10:06:11.122Z,645
2017-04-01T10:08:39.114Z,655
2017-04-01T10:09:19.637Z,655
2017-04-01T10:10:00.119Z,655
2017-04-01T10:10:40.576Z,650
2017-04-01T10:12:58.380Z,640
2017-04-01T10:13:38.867Z,645
2017-04-01T10:14:19.363Z,640
2017-04-01T10:14:59.828Z,645
2017-04-01T10:17:12.593Z,715
2017-04-01T10:17:53.399Z,730
2017-04-01T10:18:33.888Z,750
2017-04-01T10:21:11.990Z,785
2017-04-01T10:21:52.528Z,800
2017-04-01T10:22:32.981Z,810
2017-04-01T10:23:13.439Z,805
2017-04-01T10:23:53.902Z,815
2017-04-01T10:24:34.402Z,800
2017-04-01T10:25:14.862Z,805
2017-04-01T10:25:55.328Z,805
2017-04-01T10:26:35.772Z,795
2017-04-01T10:27:16.229Z,780
2017-04-01T10:27:56.687Z,760
2017-04-01T10:30:14.552Z,760
2017-04-01T10:30:55.071Z,775
2017-04-01T10:31:35.553Z,790
2017-04-01T10:32:16.089Z,795
2017-04-01T10:32:56.566Z,805
2017-04-01T10:35:09.376Z,845
2017-04-01T10:35:49.857Z,840
2017-04-01T10:36:30.308Z,835
2017-04-01T10:37:10.754Z,810
2017-04-01T10:37:51.226Z,805
2017-04-01T10:38:31.728Z,770
2017-04-01T10:39:12.185Z,735
2017-04-01T10:39:52.625Z,730
2017-04-01T10:40:33.074Z,725
2017-04-01T10:41:13.511Z,690
2017-04-01T10:41:53.966Z,680
2017-04-01T10:42:34.429Z,680
2017-04-01T10:43:14.846Z,670
2017-04-01T10:43:55.284Z,695
2017-04-01T10:44:35.734Z,720
2017-04-01T10:45:16.155Z,730
2017-04-01T10:45:56.606Z,750
2017-04-01T10:46:37.065Z,755
2017-04-01T10:47:17.510Z,800
2017-04-01T10:49:50.690Z,810
2017-04-01T10:50:31.068Z,810
2017-04-01T10:51:11.516Z,800
2017-04-01T10:51:52.040Z,770
2017-04-01T10:52:34.245Z,770
2017-04-01T10:53:14.693Z,780
2017-04-01T10:53:55.142Z,795
2017-04-01T10:54:35.606Z,790
2017-04-01T10:55:16.039Z,770
2017-04-01T10:55:56.543Z,760
2017-04-01T10:56:36.973Z,770
2017-04-01T10:57:17.400Z,800
2017-04-01T10:57:57.903Z,790
2017-04-01T10:58:38.386Z,775
2017-04-01T10:59:18.861Z,790
2017-04-01T10:59:59.340Z,795
2017-04-01T11:00:40.630Z,790
2017-04-01T11:01:21.104Z,770
2017-04-01T11:02:01.556Z,765
2017-04-01T11:02:41.988Z,765
2017-04-01T11:04:54.716Z,700
2017-04-01T11:05:35.165Z,750
2017-04-01T11:06:15.591Z,750
2017-04-01T11:06:56.038Z,740
2017-04-01T11:07:36.504Z,720
2017-04-01T11:08:16.960Z,705
2017-04-01T11:10:44.888Z,765
2017-04-01T11:11:25.380Z,815
2017-04-01T11:12:05.839Z,840
2017-04-01T11:12:46.348Z,870
2017-04-01T11:13:26.800Z,815
2017-04-01T11:14:07.243Z,840
2017-04-01T11:14:47.703Z,895
2017-04-01T11:15:28.160Z,920
2017-04-01T11:16:08.674Z,925
2017-04-01T11:16:49.137Z,930
2017-04-01T11:17:29.580Z,890
2017-04-01T11:18:10.007Z,890
2017-04-01T11:18:50.454Z,875
2017-04-01T11:19:30.956Z,860
2017-04-01T11:20:11.444Z,820
2017-04-01T11:20:51.887Z,810
2017-04-01T11:21:32.337Z,825
2017-04-01T11:22:12.748Z,800
2017-04-01T11:22:53.219Z,790
2017-04-01T11:23:33.740Z,785
2017-04-01T11:24:14.128Z,765
2017-04-01T11:24:54.629Z,775
2017-04-01T11:25:35.069Z,770
2017-04-01T11:26:16.091Z,720
2017-04-01T11:26:56.556Z,750
2017-04-01T11:27:37.041Z,800
2017-04-01T11:28:17.498Z,870
2017-04-01T11:28:57.956Z,900
2017-04-01T11:29:38.416Z,890
2017-04-01T11:30:18.897Z,895
2017-04-01T11:30:59.377Z,895
2017-04-01T11:31:39.818Z,900
2017-04-01T11:32:20.282Z,895
2017-04-01T11:33:01.315Z,895
2017-04-01T11:33:41.799Z,910
2017-04-01T11:34:22.254Z,900
2017-04-01T11:35:02.671Z,890
2017-04-01T11:35:43.124Z,875
2017-04-01T11:36:23.574Z,855
2017-04-01T11:37:04.021Z,845
2017-04-01T11:37:44.505Z,810
2017-04-01T11:38:24.985Z,800
2017-04-01T11:39:05.457Z,795
2017-04-01T11:39:45.926Z,775